FNBG

Benguela Airport

Benguela, Angola
METAR FNBG 220600Z 00000KT 9999 FEW020 27/25 Q1011
Observed Flight Rules
Apr-22 @ 06:00 UTC (59 minutes ago) Visual Flight Rules
Visibility Clouds
10,000+ meters
  • Few at 2,000' AGL
Temperatures Readings
Current 27°C / 81°F
Dewpoint 25°C / 77°F
Humidity 89%
Altimeter 29.85" Hg
Pressure 1011 hPa
Elevation 36
METAR FNBG 220600Z 00000KT 9999 FEW020 27/25 Q1011
Observed Flight Rules
Apr-22 @ 06:00 UTC
(59 minutes ago)
VFR
Clouds
  • Few at 2,000' AGL
Temperature Dewpoint
27°C / 81°F 25°C / 77°F
Humidity Altimeter Pressure
89% 29.85" Hg 1011 hPa